createdAt,value
2023-05-05T00:02:23.777Z,57.91
2023-05-05T00:04:50.192Z,57.99
2023-05-05T00:07:16.807Z,57.89
2023-05-05T00:09:43.179Z,58.03
2023-05-05T00:12:09.698Z,58.05
2023-05-05T00:14:36.244Z,58.26
2023-05-05T00:17:03.437Z,58.28
2023-05-05T00:19:29.848Z,58.42
2023-05-05T00:21:56.389Z,58.36
2023-05-05T00:24:22.909Z,58.42
2023-05-05T00:26:49.285Z,58.11
2023-05-05T00:29:15.639Z,58.07
2023-05-05T00:31:42.175Z,57.97
2023-05-05T00:34:08.694Z,57.92
2023-05-05T00:36:35.308Z,58.03
2023-05-05T00:39:01.760Z,58.10
2023-05-05T00:41:28.422Z,58.09
2023-05-05T00:43:54.799Z,58.04
2023-05-05T00:46:26.810Z,58.33
2023-05-05T00:48:53.935Z,58.26
2023-05-05T00:51:21.541Z,58.93
2023-05-05T00:53:48.399Z,59.05
2023-05-05T00:56:19.210Z,58.66
2023-05-05T00:58:46.180Z,58.84
2023-05-05T01:01:13.178Z,59.16
2023-05-05T01:03:43.342Z,59.68
2023-05-05T01:06:19.466Z,59.86
2023-05-05T01:09:01.193Z,59.86
2023-05-05T01:11:52.956Z,59.90
2023-05-05T01:14:26.485Z,59.93
2023-05-05T01:16:59.596Z,60.01
2023-05-05T01:19:51.041Z,60.04
2023-05-05T01:22:19.917Z,60.10
2023-05-05T01:25:14.124Z,59.97
2023-05-05T01:28:16.744Z,59.94
2023-05-05T01:30:47.774Z,60.12
2023-05-05T01:33:19.967Z,60.31
2023-05-05T01:35:50.715Z,60.63
2023-05-05T01:38:21.591Z,60.34
2023-05-05T01:41:02.518Z,60.09
2023-05-05T01:43:30.456Z,59.89
2023-05-05T01:45:57.896Z,60.39
2023-05-05T01:48:25.750Z,60.38
2023-05-05T01:50:52.791Z,60.54
2023-05-05T01:53:20.554Z,60.58
2023-05-05T01:55:49.310Z,60.72
2023-05-05T01:58:16.192Z,60.77
2023-05-05T02:00:43.902Z,60.64
2023-05-05T02:03:11.816Z,60.72
2023-05-05T02:05:39.191Z,61.03
2023-05-05T02:08:06.160Z,60.94
2023-05-05T02:10:32.982Z,60.95
2023-05-05T02:13:02.195Z,61.06
2023-05-05T02:15:28.994Z,61.00
2023-05-05T02:17:56.478Z,60.95
2023-05-05T02:20:24.242Z,60.95
2023-05-05T02:22:50.644Z,60.72
2023-05-05T02:25:17.359Z,60.88
2023-05-05T02:27:46.023Z,61.06
2023-05-05T02:30:14.765Z,61.05
2023-05-05T02:32:54.748Z,60.79
2023-05-05T02:35:26.191Z,60.73
2023-05-05T02:38:02.205Z,60.78
2023-05-05T02:40:33.866Z,60.86
2023-05-05T02:43:05.937Z,61.08
2023-05-05T02:45:33.377Z,60.76
2023-05-05T02:48:03.956Z,60.71
2023-05-05T02:50:32.460Z,61.15
2023-05-05T02:53:09.423Z,61.05
2023-05-05T02:55:45.001Z,60.80
2023-05-05T02:58:23.085Z,60.79
2023-05-05T03:00:50.418Z,60.75
2023-05-05T03:03:46.756Z,60.76
2023-05-05T03:06:17.252Z,60.74
2023-05-05T03:09:08.381Z,60.72
2023-05-05T03:11:40.274Z,60.50
2023-05-05T03:14:10.776Z,60.20
2023-05-05T03:16:39.239Z,60.44
2023-05-05T03:19:08.209Z,60.46
2023-05-05T03:21:35.676Z,60.60
2023-05-05T03:24:15.627Z,60.53
2023-05-05T03:26:43.789Z,60.49
2023-05-05T03:29:11.298Z,60.30
2023-05-05T03:31:39.329Z,60.24
2023-05-05T03:34:06.542Z,60.26
2023-05-05T03:36:38.274Z,60.27
2023-05-05T03:39:05.301Z,60.47
2023-05-05T03:41:33.148Z,60.53
2023-05-05T03:44:00.021Z,60.50
2023-05-05T03:46:26.737Z,60.64
2023-05-05T03:48:56.329Z,60.61
2023-05-05T03:51:23.960Z,60.66
2023-05-05T03:53:51.225Z,60.53
2023-05-05T03:56:17.997Z,60.43
2023-05-05T03:58:44.437Z,60.44
2023-05-05T04:01:11.125Z,60.55
2023-05-05T04:03:38.691Z,60.44
2023-05-05T04:06:05.419Z,60.54
2023-05-05T04:08:32.106Z,60.58
2023-05-05T04:11:01.476Z,60.62
2023-05-05T04:13:28.887Z,60.74
2023-05-05T04:15:56.061Z,60.76
2023-05-05T04:18:22.754Z,60.76
2023-05-05T04:20:50.097Z,60.82
2023-05-05T04:23:16.789Z,60.81
2023-05-05T04:25:44.363Z,60.71
2023-05-05T04:28:11.425Z,60.51
2023-05-05T04:30:38.037Z,60.08
2023-05-05T04:33:04.572Z,59.87
2023-05-05T04:35:31.428Z,60.29
2023-05-05T04:37:58.185Z,60.26
2023-05-05T04:40:25.628Z,60.07
2023-05-05T04:42:52.894Z,60.30
2023-05-05T04:45:19.358Z,59.77
2023-05-05T04:47:46.799Z,59.64
2023-05-05T04:50:13.765Z,59.68
2023-05-05T04:52:40.195Z,59.71
2023-05-05T04:55:08.391Z,59.35
2023-05-05T04:57:35.107Z,59.03
2023-05-05T05:00:04.083Z,58.53
2023-05-05T05:02:30.527Z,58.51
2023-05-05T05:04:57.023Z,58.23
2023-05-05T05:07:23.726Z,58.39
2023-05-05T05:09:50.305Z,58.17
2023-05-05T05:12:16.710Z,57.96
2023-05-05T05:14:43.227Z,57.92
2023-05-05T05:17:09.659Z,57.52
2023-05-05T05:19:36.115Z,57.25
2023-05-05T05:22:03.420Z,57.30
2023-05-05T05:24:30.540Z,57.12
2023-05-05T05:26:57.987Z,57.37
2023-05-05T05:29:24.746Z,57.54
2023-05-05T05:31:51.183Z,57.54
2023-05-05T05:34:17.583Z,57.40
2023-05-05T05:36:44.514Z,57.23
2023-05-05T05:39:10.965Z,57.11
2023-05-05T05:41:37.660Z,57.12
2023-05-05T05:44:04.623Z,57.37
2023-05-05T05:46:31.407Z,57.04
2023-05-05T05:48:57.897Z,57.14
2023-05-05T05:51:25.744Z,56.97
2023-05-05T05:53:52.482Z,56.52
2023-05-05T05:56:19.324Z,56.30
2023-05-05T05:58:47.935Z,55.92
2023-05-05T06:01:15.304Z,55.92
2023-05-05T06:03:42.116Z,55.46
2023-05-05T06:06:08.727Z,55.43
2023-05-05T06:08:35.395Z,54.90
2023-05-05T06:11:02.234Z,54.51
2023-05-05T06:13:28.964Z,54.51
2023-05-05T06:15:55.540Z,54.57
2023-05-05T06:18:22.553Z,54.56
2023-05-05T06:20:50.216Z,54.21
2023-05-05T06:23:17.418Z,53.70
2023-05-05T06:25:48.063Z,53.14
2023-05-05T06:28:14.437Z,52.81
2023-05-05T06:30:41.325Z,52.81
2023-05-05T06:33:07.892Z,52.37
2023-05-05T06:35:34.457Z,51.74
2023-05-05T06:38:00.907Z,52.04
2023-05-05T06:40:27.495Z,51.53
2023-05-05T06:42:53.870Z,51.64
2023-05-05T06:45:23.180Z,51.00
2023-05-05T06:47:49.771Z,50.48
2023-05-05T06:50:16.364Z,50.20
2023-05-05T06:52:42.764Z,49.91
2023-05-05T06:55:09.536Z,49.24
2023-05-05T06:57:36.024Z,49.13
2023-05-05T07:00:05.107Z,48.59
2023-05-05T07:02:33.165Z,49.01
2023-05-05T07:04:59.577Z,48.53
2023-05-05T07:07:26.393Z,48.14
2023-05-05T07:09:52.740Z,47.98
2023-05-05T07:12:19.220Z,48.46
2023-05-05T07:14:46.208Z,48.77
2023-05-05T07:17:12.728Z,48.09
2023-05-05T07:19:39.143Z,47.64
2023-05-05T07:22:05.633Z,47.66
2023-05-05T07:24:32.094Z,46.61
2023-05-05T07:26:58.609Z,46.42
2023-05-05T07:29:24.949Z,46.18
2023-05-05T07:31:51.496Z,46.05
2023-05-05T07:34:17.915Z,46.22
2023-05-05T07:36:44.642Z,45.86
2023-05-05T07:39:14.253Z,45.66
2023-05-05T07:41:41.644Z,45.43
2023-05-05T07:44:08.117Z,45.23
2023-05-05T07:46:34.548Z,45.66
2023-05-05T07:49:00.944Z,45.16
2023-05-05T07:51:27.395Z,44.44
2023-05-05T07:53:55.071Z,44.26
2023-05-05T07:56:21.924Z,44.05
2023-05-05T07:58:48.478Z,43.86
2023-05-05T13:02:56.000Z,20.70
2023-05-05T13:05:32.530Z,19.86
2023-05-05T13:07:59.368Z,19.79
2023-05-05T13:10:27.381Z,19.97
2023-05-05T13:12:57.801Z,19.65
2023-05-05T13:15:25.280Z,19.61
2023-05-05T13:17:59.619Z,19.84
2023-05-05T13:20:26.282Z,20.29
2023-05-05T13:22:52.705Z,19.53
2023-05-05T13:25:19.127Z,19.57
2023-05-05T13:27:45.620Z,18.80
2023-05-05T13:30:12.656Z,19.31
2023-05-05T13:32:39.168Z,19.81
2023-05-05T13:35:06.338Z,19.54
2023-05-05T13:37:32.877Z,19.19
2023-05-05T13:39:59.717Z,18.78
2023-05-05T13:42:26.043Z,19.00
2023-05-05T13:44:53.112Z,19.50
2023-05-05T13:47:19.681Z,20.04
2023-05-05T13:49:48.216Z,18.17
2023-05-05T13:52:18.606Z,18.44
2023-05-05T13:54:46.233Z,18.93
2023-05-05T13:57:19.793Z,18.98
2023-05-05T13:59:50.581Z,18.93
2023-05-05T14:02:19.867Z,19.51
2023-05-05T14:04:50.740Z,19.06
2023-05-05T14:07:23.197Z,19.42
2023-05-05T14:09:49.982Z,19.27
2023-05-05T14:12:16.390Z,19.24
2023-05-05T14:14:42.989Z,19.00
2023-05-05T14:17:09.498Z,19.39
2023-05-05T14:19:36.383Z,19.04
2023-05-05T14:22:03.117Z,19.20
2023-05-05T14:24:29.494Z,18.80
2023-05-05T14:26:56.242Z,18.69
2023-05-05T14:29:22.687Z,18.46
2023-05-05T14:31:49.137Z,19.02
2023-05-05T14:34:15.535Z,18.45
2023-05-05T14:36:41.891Z,18.56
2023-05-05T14:39:08.422Z,18.30
2023-05-05T14:41:34.875Z,18.40
2023-05-05T14:44:01.562Z,18.38
2023-05-05T14:46:27.988Z,18.71
2023-05-05T14:48:54.497Z,18.41
2023-05-05T14:51:20.865Z,17.89
2023-05-05T14:53:47.252Z,17.52
2023-05-05T14:56:13.651Z,17.49
2023-05-05T14:58:40.130Z,17.12
2023-05-05T15:01:06.829Z,16.40
2023-05-05T15:03:33.580Z,16.36
2023-05-05T15:06:00.306Z,16.55
2023-05-05T15:08:26.925Z,16.66
2023-05-05T15:10:53.269Z,17.05
2023-05-05T15:13:19.938Z,17.33
2023-05-05T15:15:46.382Z,17.84
2023-05-05T15:18:12.735Z,18.63
2023-05-05T15:20:39.229Z,18.41
2023-05-05T15:23:05.717Z,19.07
2023-05-05T15:25:32.076Z,19.28
2023-05-05T15:28:00.169Z,19.18
2023-05-05T15:30:27.202Z,18.95
2023-05-05T15:32:53.690Z,18.00
2023-05-05T15:35:20.323Z,17.46
2023-05-05T15:37:46.782Z,17.00
2023-05-05T15:40:13.221Z,17.48
2023-05-05T15:42:39.664Z,17.30
2023-05-05T15:45:07.576Z,17.71
2023-05-05T15:47:34.275Z,17.59
2023-05-05T15:50:00.727Z,17.46
2023-05-05T15:52:27.158Z,17.65
2023-05-05T15:54:53.564Z,17.38
2023-05-05T15:57:20.730Z,17.54
2023-05-05T15:59:50.728Z,17.24
2023-05-05T16:02:17.715Z,16.70
2023-05-05T16:04:44.805Z,17.15
2023-05-05T16:07:11.524Z,16.60
2023-05-05T16:09:38.100Z,16.63
2023-05-05T16:12:05.428Z,16.50
2023-05-05T16:14:32.095Z,16.24
2023-05-05T16:16:58.817Z,16.42
2023-05-05T16:19:28.209Z,15.71
2023-05-05T16:21:54.576Z,15.62
2023-05-05T16:24:21.212Z,15.90
2023-05-05T16:26:47.837Z,15.84
2023-05-05T16:29:14.370Z,15.84
2023-05-05T16:31:40.897Z,15.87
2023-05-05T16:34:07.493Z,15.40
2023-05-05T16:36:33.961Z,15.36
2023-05-05T16:39:00.289Z,15.45
2023-05-05T16:41:26.965Z,15.89
2023-05-05T16:43:53.501Z,16.23
2023-05-05T16:46:20.357Z,17.09
2023-05-05T16:48:47.071Z,17.41
2023-05-05T16:51:13.466Z,18.05
2023-05-05T16:53:40.074Z,18.48
2023-05-05T16:56:06.736Z,19.06
2023-05-05T16:58:33.079Z,19.96
2023-05-05T17:01:01.334Z,20.31
2023-05-05T17:03:27.707Z,21.21
2023-05-05T17:05:54.657Z,22.07
2023-05-05T17:08:21.333Z,22.27
2023-05-05T17:10:47.854Z,23.47
2023-05-05T17:13:14.462Z,23.87
2023-05-05T17:15:42.920Z,23.93
2023-05-05T17:18:09.837Z,24.15
2023-05-05T17:20:36.442Z,24.89
2023-05-05T17:23:03.003Z,25.61
2023-05-05T17:25:29.557Z,25.64
2023-05-05T17:27:56.318Z,25.96
2023-05-05T17:30:23.488Z,26.62
2023-05-05T17:32:49.903Z,26.54
2023-05-05T17:35:16.287Z,27.11
2023-05-05T17:37:42.670Z,27.37
2023-05-05T17:40:09.513Z,27.72
2023-05-05T17:42:35.948Z,27.66
2023-05-05T17:45:02.775Z,28.02
2023-05-05T17:47:30.609Z,28.36
2023-05-05T17:49:57.052Z,28.28
2023-05-05T17:52:23.869Z,28.80
2023-05-05T17:54:50.392Z,29.52
2023-05-05T17:57:20.073Z,29.82
2023-05-05T17:59:48.910Z,29.75
2023-05-05T18:02:15.876Z,30.20
2023-05-05T18:04:42.733Z,29.93
2023-05-05T18:07:11.344Z,30.27
2023-05-05T18:09:38.412Z,30.10
2023-05-05T18:12:05.235Z,30.11
2023-05-05T18:14:31.702Z,30.05
2023-05-05T18:16:58.070Z,30.40
2023-05-05T18:19:24.468Z,30.40
2023-05-05T18:21:52.141Z,30.86
2023-05-05T18:24:20.498Z,31.03
2023-05-05T18:26:49.482Z,31.89
2023-05-05T18:29:17.026Z,32.46
2023-05-05T18:31:44.671Z,32.80
2023-05-05T18:34:11.481Z,33.74
2023-05-05T18:36:37.834Z,33.86
2023-05-05T18:39:04.306Z,34.20
2023-05-05T18:41:30.725Z,35.21
2023-05-05T18:43:59.635Z,34.97
2023-05-05T18:46:26.186Z,35.91
2023-05-05T18:48:52.792Z,36.03
2023-05-05T18:51:19.252Z,36.53
2023-05-05T18:53:45.652Z,37.31
2023-05-05T18:56:12.130Z,37.61
2023-05-05T18:58:38.694Z,38.33
2023-05-05T19:01:05.501Z,38.79
2023-05-05T19:03:33.735Z,39.20
2023-05-05T19:06:05.228Z,39.77
2023-05-05T19:08:32.145Z,40.08
2023-05-05T19:10:58.488Z,40.93
2023-05-05T19:13:25.149Z,40.79
2023-05-05T19:15:53.316Z,40.56
2023-05-05T19:18:19.719Z,41.03
2023-05-05T19:20:46.073Z,41.11
2023-05-05T19:23:12.542Z,41.21
2023-05-05T19:25:39.480Z,41.46
2023-05-05T19:28:05.986Z,41.60
2023-05-05T19:30:32.421Z,41.92
2023-05-05T19:32:58.874Z,42.32
2023-05-05T19:35:25.494Z,42.63
2023-05-05T19:37:51.830Z,42.57
2023-05-05T19:40:18.277Z,42.36
2023-05-05T19:42:44.627Z,42.68
2023-05-05T19:45:11.149Z,43.72
2023-05-05T19:47:37.482Z,43.89
2023-05-05T19:50:04.530Z,44.39
2023-05-05T19:52:31.025Z,44.30
2023-05-05T19:54:58.079Z,43.99
2023-05-05T19:57:24.501Z,44.17
2023-05-05T19:59:51.024Z,44.19
2023-05-05T20:02:17.720Z,44.46
2023-05-05T20:04:44.167Z,44.72
2023-05-05T20:07:10.566Z,44.91
2023-05-05T20:09:37.137Z,45.33
2023-05-05T20:12:03.931Z,45.57
2023-05-05T20:14:30.974Z,46.14
2023-05-05T20:16:57.476Z,45.69
2023-05-05T20:19:24.001Z,46.33
2023-05-05T20:21:50.447Z,46.31
2023-05-05T20:24:16.879Z,46.63
2023-05-05T20:26:43.311Z,46.30
2023-05-05T20:29:09.716Z,46.50
2023-05-05T20:31:36.726Z,47.11
2023-05-05T20:34:03.245Z,46.90
2023-05-05T20:36:29.686Z,46.87
2023-05-05T20:38:56.058Z,47.25
2023-05-05T20:41:22.545Z,47.29
2023-05-05T20:43:48.982Z,47.27
2023-05-05T20:46:15.739Z,47.49
2023-05-05T20:48:43.142Z,47.55
2023-05-05T20:51:09.693Z,47.92
2023-05-05T20:53:36.121Z,47.82
2023-05-05T20:56:02.977Z,47.93
2023-05-05T20:58:29.522Z,48.17
2023-05-05T21:00:56.188Z,48.07
2023-05-05T21:03:22.771Z,48.24
2023-05-05T21:05:49.302Z,48.52
2023-05-05T21:08:15.656Z,48.67
2023-05-05T21:10:42.058Z,48.70
2023-05-05T21:13:08.534Z,48.60
2023-05-05T21:15:38.286Z,49.11
2023-05-05T21:18:05.901Z,48.98
2023-05-05T21:20:32.454Z,49.35
2023-05-05T21:22:59.062Z,49.57
2023-05-05T21:25:26.080Z,49.37
2023-05-05T21:27:52.593Z,49.39
2023-05-05T21:30:19.188Z,49.52
2023-05-05T21:32:45.648Z,49.65
2023-05-05T21:35:12.539Z,49.94
2023-05-05T21:37:39.550Z,49.94
2023-05-05T21:40:13.005Z,50.26
2023-05-05T21:42:40.793Z,50.11
2023-05-05T21:45:08.084Z,50.47
2023-05-05T21:47:35.030Z,50.61
2023-05-05T21:50:01.542Z,50.75
2023-05-05T21:52:27.974Z,50.79
2023-05-05T21:54:54.410Z,50.62
2023-05-05T21:57:20.766Z,50.70
2023-05-05T21:59:47.170Z,50.99
2023-05-05T22:02:13.583Z,50.97
2023-05-05T22:04:41.413Z,50.87
2023-05-05T22:07:08.030Z,51.11
2023-05-05T22:09:34.525Z,51.19
2023-05-05T22:12:01.778Z,51.28
2023-05-05T22:14:28.077Z,51.40
2023-05-05T22:16:54.664Z,52.09
2023-05-05T22:19:21.366Z,51.98
2023-05-05T22:21:47.694Z,51.62
2023-05-05T22:24:14.439Z,52.03
2023-05-05T22:26:42.463Z,51.55
2023-05-05T22:29:10.073Z,52.17
2023-05-05T22:31:36.999Z,52.17
2023-05-05T22:34:03.583Z,52.15
2023-05-05T22:36:30.722Z,52.12
2023-05-05T22:38:57.190Z,51.95
2023-05-05T22:41:24.199Z,52.22
2023-05-05T22:43:51.131Z,52.18
2023-05-05T22:46:17.573Z,52.39
2023-05-05T22:48:43.901Z,52.64
2023-05-05T22:51:10.800Z,52.71
2023-05-05T22:53:38.171Z,52.90
2023-05-05T22:56:05.609Z,52.46
2023-05-05T22:58:32.053Z,52.62
2023-05-05T23:00:58.435Z,53.13
2023-05-05T23:03:24.781Z,52.98
2023-05-05T23:05:51.403Z,53.41
2023-05-05T23:08:17.860Z,53.51
2023-05-05T23:10:44.288Z,53.56
2023-05-05T23:13:10.836Z,53.69
2023-05-05T23:15:37.331Z,53.32
2023-05-05T23:18:03.740Z,53.44
2023-05-05T23:20:30.224Z,53.65
2023-05-05T23:22:56.694Z,53.72
2023-05-05T23:25:23.054Z,53.59
2023-05-05T23:27:49.985Z,54.18
2023-05-05T23:30:16.588Z,54.31
2023-05-05T23:32:44.191Z,54.32
2023-05-05T23:35:11.179Z,54.35
2023-05-05T23:37:37.800Z,54.64
2023-05-05T23:40:06.207Z,54.42
2023-05-05T23:42:32.766Z,54.66
2023-05-05T23:45:00.244Z,54.24
2023-05-05T23:47:27.175Z,54.91
2023-05-05T23:49:53.505Z,55.23
2023-05-05T23:52:20.287Z,55.29
2023-05-05T23:54:46.691Z,55.42
2023-05-05T23:57:13.065Z,55.47
2023-05-05T23:59:39.936Z,55.64
